createdAt,value
2023-02-28T00:01:07.138Z,-2.19
2023-02-28T00:03:36.500Z,-2.25
2023-02-28T00:06:05.680Z,-2.19
2023-02-28T00:08:32.735Z,-2.16
2023-02-28T00:11:08.561Z,-2.11
2023-02-28T00:13:38.565Z,-2.11
2023-02-28T00:16:11.438Z,-2.15
2023-02-28T00:18:39.045Z,-2.18
2023-02-28T00:21:06.514Z,-2.30
2023-02-28T00:23:33.918Z,-2.33
2023-02-28T00:26:00.772Z,-2.35
2023-02-28T00:28:27.883Z,-2.33
2023-02-28T00:30:54.770Z,-2.38
2023-02-28T00:33:22.202Z,-2.40
2023-02-28T00:35:49.959Z,-2.36
2023-02-28T00:38:19.293Z,-2.57
2023-02-28T00:40:46.104Z,-2.48
2023-02-28T00:43:15.292Z,-2.42
2023-02-28T00:45:42.948Z,-2.48
2023-02-28T00:48:10.006Z,-2.44
2023-02-28T00:50:37.293Z,-2.56
2023-02-28T00:53:03.952Z,-2.50
2023-02-28T00:55:31.122Z,-2.50
2023-02-28T00:57:57.825Z,-2.51
2023-02-28T01:00:24.568Z,-2.49
2023-02-28T01:02:51.250Z,-2.46
2023-02-28T01:05:18.038Z,-2.60
2023-02-28T01:07:48.427Z,-2.47
2023-02-28T01:10:15.162Z,-2.67
2023-02-28T01:12:43.136Z,-2.61
2023-02-28T01:15:12.484Z,-2.71
2023-02-28T01:17:39.240Z,-2.73
2023-02-28T01:20:06.782Z,-2.61
2023-02-28T01:22:33.465Z,-2.66
2023-02-28T01:25:00.441Z,-2.66
2023-02-28T01:27:27.744Z,-2.73
2023-02-28T01:29:54.396Z,-2.75
2023-02-28T01:32:21.304Z,-2.77
2023-02-28T01:34:47.997Z,-2.63
2023-02-28T01:37:14.644Z,-2.56
2023-02-28T01:42:06.930Z,-2.60
2023-02-28T01:44:42.657Z,-2.83
2023-02-28T01:47:09.459Z,-2.94
2023-02-28T01:49:36.134Z,-2.85
2023-02-28T01:52:03.425Z,-2.73
2023-02-28T01:54:34.828Z,-2.68
2023-02-28T01:57:12.871Z,-2.64
2023-02-28T01:59:49.970Z,-2.77
2023-02-28T02:02:18.854Z,-2.80
2023-02-28T02:04:56.456Z,-2.85
2023-02-28T02:07:24.578Z,-2.82
2023-02-28T02:09:51.364Z,-2.84
2023-02-28T02:12:31.757Z,-2.72
2023-02-28T02:15:14.129Z,-2.77
2023-02-28T02:17:41.667Z,-2.92
2023-02-28T02:20:39.335Z,-2.85
2023-02-28T02:23:42.639Z,-2.87
2023-02-28T02:26:12.245Z,-2.90
2023-02-28T02:28:43.696Z,-2.99
2023-02-28T02:31:42.757Z,-2.82
2023-02-28T02:34:27.469Z,-2.96
2023-02-28T02:37:32.426Z,-3.17
2023-02-28T02:40:01.851Z,-2.93
2023-02-28T02:42:42.612Z,-3.08
2023-02-28T02:45:16.908Z,-3.09
2023-02-28T02:47:45.376Z,-3.23
2023-02-28T02:50:38.774Z,-3.04
2023-02-28T02:53:08.462Z,-3.14
2023-02-28T02:55:42.606Z,-3.22
2023-02-28T02:58:15.166Z,-3.34
2023-02-28T03:00:42.705Z,-3.25
2023-02-28T03:03:12.176Z,-3.10
2023-02-28T03:05:42.636Z,-3.26
2023-02-28T03:08:09.346Z,-3.29
2023-02-28T03:10:41.721Z,-3.19
2023-02-28T03:13:26.552Z,-3.11
2023-02-28T03:16:07.199Z,-3.18
2023-02-28T03:18:42.692Z,-3.26
2023-02-28T03:21:24.970Z,-3.24
2023-02-28T03:23:55.704Z,-3.40
2023-02-28T03:26:28.330Z,-3.49
2023-02-28T03:29:06.650Z,-3.31
2023-02-28T03:31:39.165Z,-3.36
2023-02-28T03:34:19.738Z,-3.37
2023-02-28T03:36:52.867Z,-3.23
2023-02-28T03:39:28.109Z,-3.49
2023-02-28T03:42:03.266Z,-3.50
2023-02-28T03:44:36.734Z,-3.45
2023-02-28T03:47:15.950Z,-3.43
2023-02-28T03:50:00.855Z,-3.48
2023-02-28T03:52:33.686Z,-3.49
2023-02-28T03:55:07.630Z,-3.51
2023-02-28T03:57:41.822Z,-3.64
2023-02-28T04:00:15.535Z,-3.46
2023-02-28T04:02:42.484Z,-3.61
2023-02-28T04:05:09.530Z,-3.64
2023-02-28T04:07:36.773Z,-3.66
2023-02-28T04:10:05.091Z,-3.56
2023-02-28T04:12:31.827Z,-3.68
2023-02-28T04:14:58.626Z,-3.43
2023-02-28T04:17:25.566Z,-3.49
2023-02-28T04:19:52.565Z,-3.48
2023-02-28T04:22:19.477Z,-3.58
2023-02-28T04:24:46.667Z,-3.61
2023-02-28T04:27:16.593Z,-3.42
2023-02-28T04:29:45.681Z,-3.55
2023-02-28T04:32:14.094Z,-3.60
2023-02-28T04:37:13.625Z,-3.53
2023-02-28T04:39:42.927Z,-3.34
2023-02-28T04:42:10.951Z,-3.35
2023-02-28T04:44:37.744Z,-3.29
2023-02-28T04:47:04.556Z,-3.39
2023-02-28T04:49:31.191Z,-3.56
2023-02-28T04:51:57.944Z,-3.36
2023-02-28T04:54:24.640Z,-3.48
2023-02-28T04:56:51.460Z,-3.43
2023-02-28T04:59:18.596Z,-3.46
2023-02-28T05:01:49.906Z,-3.37
2023-02-28T05:04:17.203Z,-3.18
2023-02-28T05:06:44.124Z,-3.29
2023-02-28T05:09:14.426Z,-3.47
2023-02-28T05:11:43.035Z,-3.41
2023-02-28T05:14:15.197Z,-3.44
2023-02-28T05:16:43.195Z,-3.39
2023-02-28T05:19:10.147Z,-3.47
2023-02-28T05:21:40.163Z,-3.33
2023-02-28T05:24:13.556Z,-3.41
2023-02-28T05:26:42.694Z,-3.22
2023-02-28T05:29:10.295Z,-3.07
2023-02-28T05:31:37.588Z,-3.14
2023-02-28T05:34:07.303Z,-3.17
2023-02-28T05:36:34.910Z,-3.31
2023-02-28T05:39:01.742Z,-3.21
2023-02-28T05:41:29.033Z,-3.31
2023-02-28T05:43:56.040Z,-3.29
2023-02-28T05:46:23.454Z,-3.17
2023-02-28T05:48:50.544Z,-3.13
2023-02-28T05:51:17.927Z,-3.22
2023-02-28T05:53:44.688Z,-3.20
2023-02-28T05:56:12.457Z,-3.49
2023-02-28T05:58:39.260Z,-3.18
2023-02-28T06:01:29.893Z,-3.20
2023-02-28T06:03:56.936Z,-3.05
2023-02-28T06:06:23.625Z,-3.26
2023-02-28T06:08:50.441Z,-3.23
2023-02-28T06:11:17.214Z,-3.37
2023-02-28T06:13:43.954Z,-3.26
2023-02-28T06:16:12.417Z,-3.23
2023-02-28T06:18:39.576Z,-3.48
2023-02-28T06:21:06.931Z,-3.06
2023-02-28T06:23:34.225Z,-3.31
2023-02-28T06:26:01.245Z,-3.27
2023-02-28T06:28:28.517Z,-3.10
2023-02-28T06:30:55.357Z,-3.20
2023-02-28T06:33:22.125Z,-3.23
2023-02-28T06:35:52.158Z,-3.15
2023-02-28T06:38:19.389Z,-3.23
2023-02-28T06:40:46.217Z,-3.12
2023-02-28T06:43:16.037Z,-2.97
2023-02-28T06:45:44.603Z,-2.96
2023-02-28T06:48:11.747Z,-3.03
2023-02-28T06:53:07.428Z,-2.95
2023-02-28T06:55:34.298Z,-2.86
2023-02-28T06:58:01.183Z,-2.84
2023-02-28T07:00:27.949Z,-2.89
2023-02-28T07:02:56.232Z,-2.79
2023-02-28T07:05:23.163Z,-2.85
2023-02-28T07:07:49.897Z,-2.75
2023-02-28T07:10:20.188Z,-2.55
2023-02-28T07:12:47.201Z,-2.54
2023-02-28T07:15:13.978Z,-2.54
2023-02-28T07:20:07.662Z,-2.30
2023-02-28T07:22:34.320Z,-2.30
2023-02-28T07:25:01.058Z,-2.15
2023-02-28T07:27:27.798Z,-2.16
2023-02-28T07:29:55.806Z,-2.13
2023-02-28T07:32:22.723Z,-2.01
2023-02-28T07:34:49.726Z,-2.05
2023-02-28T07:37:16.612Z,-2.03
2023-02-28T07:39:43.626Z,-1.97
2023-02-28T07:42:13.475Z,-1.93
2023-02-28T07:47:11.154Z,-1.79
2023-02-28T07:49:38.154Z,-1.79
2023-02-28T07:52:06.890Z,-1.72
2023-02-28T07:54:34.534Z,-1.54
2023-02-28T07:57:01.193Z,-1.54
2023-02-28T07:59:28.097Z,-1.44
2023-02-28T08:01:59.251Z,-1.43
2023-02-28T08:04:26.618Z,-1.32
2023-02-28T08:06:54.186Z,-1.15
2023-02-28T08:09:20.989Z,-1.00
2023-02-28T08:11:47.663Z,-0.91
2023-02-28T08:14:14.896Z,-0.75
2023-02-28T08:19:07.313Z,-0.72
2023-02-28T08:21:34.192Z,-0.64
2023-02-28T08:24:00.892Z,-0.51
2023-02-28T08:26:27.759Z,-0.54
2023-02-28T08:28:56.176Z,-0.46
2023-02-28T08:31:24.280Z,-0.31
2023-02-28T08:33:52.994Z,-0.11
2023-02-28T08:36:21.515Z,-0.08
2023-02-28T08:38:48.301Z,-0.06
2023-02-28T08:41:15.037Z,0.05
2023-02-28T08:43:42.946Z,-0.03
2023-02-28T08:46:13.616Z,0.32
2023-02-28T08:51:13.212Z,0.53
2023-02-28T08:56:11.848Z,0.78
2023-02-28T08:58:39.251Z,0.68
2023-02-28T09:01:14.321Z,1.01
2023-02-28T09:03:42.934Z,0.91
2023-02-28T09:06:11.299Z,0.99
2023-02-28T09:08:38.444Z,0.83
2023-02-28T09:11:05.983Z,0.95
2023-02-28T09:13:36.204Z,1.26
2023-02-28T09:16:05.110Z,1.50
2023-02-28T09:18:31.921Z,1.50
2023-02-28T09:20:58.973Z,1.45
2023-02-28T09:23:26.042Z,1.50
2023-02-28T09:25:55.130Z,1.55
2023-02-28T09:28:22.648Z,1.74
2023-02-28T09:30:52.018Z,1.94
2023-02-28T09:33:21.856Z,1.93
2023-02-28T09:35:49.622Z,1.78
2023-02-28T09:38:16.452Z,1.77
2023-02-28T09:40:54.794Z,1.92
2023-02-28T09:43:25.121Z,1.91
2023-02-28T09:46:16.944Z,1.58
2023-02-28T09:48:48.106Z,1.65
2023-02-28T09:51:36.813Z,1.96
2023-02-28T09:54:03.981Z,1.75
2023-02-28T09:56:42.882Z,1.96
2023-02-28T10:02:22.483Z,2.40
2023-02-28T10:04:56.468Z,2.40
2023-02-28T10:07:35.291Z,2.88
2023-02-28T10:10:10.036Z,3.21
2023-02-28T10:15:15.602Z,3.46
2023-02-28T10:17:55.249Z,2.71
2023-02-28T10:20:31.017Z,2.94
2023-02-28T10:23:18.041Z,3.11
2023-02-28T10:25:51.316Z,2.75
2023-02-28T10:28:19.217Z,2.97
2023-02-28T10:30:51.120Z,2.95
2023-02-28T10:33:25.275Z,2.62
2023-02-28T10:35:53.165Z,2.79
2023-02-28T10:38:25.898Z,2.75
2023-02-28T10:41:04.015Z,3.20
2023-02-28T10:43:31.026Z,3.65
2023-02-28T10:46:27.008Z,3.47
2023-02-28T10:49:06.695Z,3.86
2023-02-28T10:51:38.799Z,4.24
2023-02-28T10:54:06.321Z,4.33
2023-02-28T10:56:34.220Z,3.62
2023-02-28T10:59:31.970Z,3.88
2023-02-28T11:01:58.824Z,3.31
2023-02-28T11:04:33.561Z,2.78
2023-02-28T11:07:07.451Z,2.57
2023-02-28T11:09:39.893Z,2.85
2023-02-28T11:12:47.032Z,3.28
2023-02-28T11:15:15.806Z,3.30
2023-02-28T11:17:43.814Z,3.29
2023-02-28T11:20:22.004Z,3.03
2023-02-28T11:22:48.967Z,3.35
2023-02-28T11:25:43.007Z,2.77
2023-02-28T11:28:27.609Z,2.65
2023-02-28T11:31:20.686Z,2.97
2023-02-28T11:33:56.843Z,3.52
2023-02-28T11:36:30.399Z,3.50
2023-02-28T11:39:04.709Z,3.47
2023-02-28T11:41:41.475Z,3.74
2023-02-28T11:44:18.160Z,3.94
2023-02-28T11:46:51.523Z,3.95
2023-02-28T11:49:28.018Z,3.61
2023-02-28T11:52:04.242Z,3.72
2023-02-28T11:54:41.973Z,4.04
2023-02-28T11:57:33.917Z,4.60
2023-02-28T12:00:05.966Z,4.16
2023-02-28T12:02:38.356Z,3.78
2023-02-28T12:05:17.204Z,4.79
2023-02-28T12:08:07.271Z,7.10
2023-02-28T12:10:42.952Z,4.48
2023-02-28T12:13:29.706Z,4.79
2023-02-28T12:16:16.395Z,4.62
2023-02-28T12:18:55.064Z,7.34
2023-02-28T12:21:43.207Z,7.42
2023-02-28T12:24:24.970Z,6.82
2023-02-28T12:26:53.166Z,5.53
2023-02-28T12:29:43.714Z,4.51
2023-02-28T12:32:23.287Z,5.89
2023-02-28T12:35:00.013Z,4.95
2023-02-28T12:37:36.828Z,4.21
2023-02-28T12:40:12.169Z,5.68
2023-02-28T12:42:41.982Z,5.28
2023-02-28T12:45:14.660Z,7.35
2023-02-28T12:47:42.094Z,8.72
2023-02-28T12:50:12.852Z,8.01
2023-02-28T12:52:42.012Z,7.59
2023-02-28T12:55:35.856Z,4.94
2023-02-28T12:58:29.000Z,6.85
2023-02-28T13:01:29.257Z,7.74
2023-02-28T13:04:19.323Z,5.87
2023-02-28T13:07:18.148Z,7.12
2023-02-28T13:09:58.506Z,7.96
2023-02-28T13:12:25.704Z,8.00
2023-02-28T13:15:23.246Z,6.49
2023-02-28T13:17:56.148Z,6.04
2023-02-28T13:20:37.447Z,8.54
2023-02-28T13:23:06.529Z,9.00
2023-02-28T13:25:39.197Z,8.06
2023-02-28T13:28:12.001Z,7.44
2023-02-28T13:30:41.985Z,8.99
2023-02-28T13:33:30.559Z,8.55
2023-02-28T13:36:33.548Z,9.85
2023-02-28T13:39:25.087Z,8.32
2023-02-28T13:41:51.824Z,9.30
2023-02-28T13:44:27.981Z,8.52
2023-02-28T13:46:54.613Z,8.15
2023-02-28T13:49:24.364Z,9.01
2023-02-28T13:51:53.394Z,10.16
2023-02-28T13:57:21.892Z,9.76
2023-02-28T14:00:26.429Z,8.57
2023-02-28T14:03:43.090Z,10.57
2023-02-28T14:06:28.280Z,9.25
2023-02-28T14:09:20.901Z,9.44
2023-02-28T14:11:47.898Z,8.90
2023-02-28T14:14:37.661Z,9.80
2023-02-28T14:17:10.699Z,8.90
2023-02-28T14:19:40.374Z,8.35
2023-02-28T14:25:35.808Z,9.46
2023-02-28T14:28:08.691Z,10.09
2023-02-28T14:30:43.095Z,9.06
2023-02-28T14:33:19.992Z,9.90
2023-02-28T14:36:04.759Z,8.93
2023-02-28T14:41:21.820Z,8.32
2023-02-28T14:43:57.869Z,8.43
2023-02-28T14:46:30.186Z,9.16
2023-02-28T14:48:57.078Z,9.27
2023-02-28T14:51:25.419Z,8.27
2023-02-28T14:53:58.365Z,8.88
2023-02-28T14:56:29.437Z,8.51
2023-02-28T14:58:59.440Z,8.10
2023-02-28T15:01:30.401Z,7.80
2023-02-28T15:04:04.286Z,6.11
2023-02-28T15:06:31.711Z,7.24
2023-02-28T15:09:09.786Z,8.08
2023-02-28T15:11:37.371Z,8.22
2023-02-28T15:14:16.351Z,8.24
2023-02-28T15:16:45.797Z,9.15
2023-02-28T15:19:25.471Z,8.78
2023-02-28T15:22:01.553Z,8.78
2023-02-28T15:24:43.479Z,8.38
2023-02-28T15:27:33.588Z,8.33
2023-02-28T15:30:06.414Z,7.06
2023-02-28T15:32:36.117Z,8.17
2023-02-28T15:35:27.146Z,7.76
2023-02-28T15:37:58.086Z,7.74
2023-02-28T15:40:29.297Z,7.27
2023-02-28T15:43:15.258Z,6.23
2023-02-28T15:45:42.265Z,5.97
2023-02-28T15:48:29.714Z,5.89
2023-02-28T15:51:21.268Z,5.71
2023-02-28T15:54:03.791Z,5.91
2023-02-28T15:56:39.583Z,5.70
2023-02-28T15:59:15.034Z,5.52
2023-02-28T16:04:16.861Z,5.28
2023-02-28T16:06:58.777Z,4.86
2023-02-28T16:09:25.823Z,4.72
2023-02-28T16:11:56.291Z,4.62
2023-02-28T16:14:26.176Z,4.35
2023-02-28T16:16:58.342Z,3.98
2023-02-28T16:19:25.165Z,3.68
2023-02-28T16:21:52.555Z,3.59
2023-02-28T16:24:19.475Z,3.55
2023-02-28T16:26:52.705Z,3.32
2023-02-28T16:29:38.503Z,3.21
2023-02-28T16:32:06.677Z,3.10
2023-02-28T16:34:33.592Z,3.00
2023-02-28T16:37:01.584Z,3.01
2023-02-28T16:39:29.222Z,2.93
2023-02-28T16:41:57.371Z,2.77
2023-02-28T16:44:34.446Z,2.72
2023-02-28T16:47:02.958Z,2.62
2023-02-28T16:49:30.423Z,2.58
2023-02-28T16:51:57.400Z,2.51
2023-02-28T16:54:24.185Z,2.37
2023-02-28T16:56:51.472Z,2.31
2023-02-28T16:59:23.506Z,2.25
2023-02-28T17:01:51.166Z,2.22
2023-02-28T17:04:18.520Z,2.16
2023-02-28T17:06:45.603Z,2.15
2023-02-28T17:09:18.397Z,2.06
2023-02-28T17:11:48.549Z,2.10
2023-02-28T17:14:16.491Z,1.90
2023-02-28T17:16:44.029Z,1.76
2023-02-28T17:19:16.513Z,1.82
2023-02-28T17:21:44.488Z,1.80
2023-02-28T17:24:22.167Z,1.76
2023-02-28T17:26:56.673Z,1.73
2023-02-28T17:29:23.423Z,1.61
2023-02-28T17:31:50.153Z,1.66
2023-02-28T17:34:19.403Z,1.60
2023-02-28T17:36:49.790Z,1.48
2023-02-28T17:39:25.534Z,1.41
2023-02-28T17:41:53.311Z,1.34
2023-02-28T17:44:21.130Z,1.32
2023-02-28T17:46:51.502Z,1.35
2023-02-28T17:49:19.997Z,1.28
2023-02-28T17:51:48.538Z,1.31
2023-02-28T17:54:17.594Z,1.28
2023-02-28T17:56:45.399Z,1.20
2023-02-28T17:59:13.385Z,1.18
2023-02-28T18:01:40.459Z,1.11
2023-02-28T18:04:07.391Z,1.24
2023-02-28T18:06:43.259Z,1.18
2023-02-28T18:09:13.335Z,1.18
2023-02-28T18:11:43.305Z,1.19
2023-02-28T18:14:13.823Z,1.24
2023-02-28T18:19:08.730Z,1.10
2023-02-28T18:21:36.400Z,1.17
2023-02-28T18:24:03.248Z,1.11
2023-02-28T18:26:30.462Z,1.10
2023-02-28T18:28:58.424Z,1.01
2023-02-28T18:31:25.456Z,1.05
2023-02-28T18:33:53.212Z,1.04
2023-02-28T18:36:21.538Z,0.91
2023-02-28T18:38:50.825Z,0.80
2023-02-28T18:41:20.882Z,0.87
2023-02-28T18:43:48.200Z,0.93
2023-02-28T18:46:17.111Z,0.81
2023-02-28T18:48:44.427Z,0.81
2023-02-28T18:51:21.525Z,0.88
2023-02-28T18:53:48.833Z,0.81
2023-02-28T18:56:18.548Z,0.73
2023-02-28T18:58:45.736Z,0.81
2023-02-28T19:01:27.077Z,0.73
2023-02-28T19:03:53.786Z,0.74
2023-02-28T19:06:20.659Z,0.71
2023-02-28T19:08:49.360Z,0.66
2023-02-28T19:11:18.514Z,0.67
2023-02-28T19:13:47.545Z,0.60
2023-02-28T19:16:17.273Z,0.59
2023-02-28T19:18:44.696Z,0.56
2023-02-28T19:21:14.169Z,0.55
2023-02-28T19:26:14.324Z,0.57
2023-02-28T19:31:24.746Z,0.50
2023-02-28T19:33:53.211Z,0.45
2023-02-28T19:36:21.661Z,0.43
2023-02-28T19:38:48.584Z,0.36
2023-02-28T19:41:17.816Z,0.37
2023-02-28T19:43:44.724Z,0.31
2023-02-28T19:46:12.520Z,0.26
2023-02-28T19:48:39.915Z,0.30
2023-02-28T19:51:09.944Z,0.24
2023-02-28T19:53:38.998Z,0.27
2023-02-28T19:56:06.637Z,0.28
2023-02-28T19:58:33.998Z,0.19
2023-02-28T20:01:12.375Z,0.19
2023-02-28T20:03:39.286Z,0.10
2023-02-28T20:06:10.037Z,0.11
2023-02-28T20:08:38.630Z,0.08
2023-02-28T20:11:11.216Z,0.05
2023-02-28T20:13:37.911Z,0.05
2023-02-28T20:16:09.751Z,-0.08
2023-02-28T20:18:38.152Z,0.00
2023-02-28T20:21:05.218Z,-0.09
2023-02-28T20:23:32.419Z,-0.05
2023-02-28T20:26:03.110Z,0.01
2023-02-28T20:28:29.804Z,-0.06
2023-02-28T20:30:57.019Z,-0.15
2023-02-28T20:33:24.217Z,-0.20
2023-02-28T20:35:58.371Z,-0.19
2023-02-28T20:38:25.052Z,-0.41
2023-02-28T20:40:56.538Z,-0.27
2023-02-28T20:43:23.876Z,-0.44
2023-02-28T20:45:52.735Z,-0.25
2023-02-28T20:48:19.633Z,-0.31
2023-02-28T20:50:54.574Z,-0.43
2023-02-28T20:53:22.409Z,-0.26
2023-02-28T20:56:01.340Z,-0.41
2023-02-28T20:58:30.647Z,-0.37
2023-02-28T21:01:18.158Z,-0.33
2023-02-28T21:03:47.213Z,-0.40
2023-02-28T21:06:17.586Z,-0.45
2023-02-28T21:08:45.065Z,-0.46
2023-02-28T21:11:14.285Z,-0.54
2023-02-28T21:16:10.234Z,-0.53
2023-02-28T21:18:37.738Z,-0.50
2023-02-28T21:21:09.765Z,-0.57
2023-02-28T21:23:36.565Z,-0.66
2023-02-28T21:26:08.456Z,-0.68
2023-02-28T21:28:36.153Z,-0.65
2023-02-28T21:31:08.575Z,-0.62
2023-02-28T21:33:35.945Z,-0.82
2023-02-28T21:36:04.301Z,-0.90
2023-02-28T21:38:38.661Z,-0.80
2023-02-28T21:41:11.323Z,-0.91
2023-02-28T21:43:39.062Z,-1.03
2023-02-28T21:46:08.686Z,-1.01
2023-02-28T21:48:36.357Z,-0.99
2023-02-28T21:51:08.876Z,-0.87
2023-02-28T21:56:15.240Z,-0.81
2023-02-28T22:01:10.620Z,-0.99
2023-02-28T22:03:37.966Z,-1.15
2023-02-28T22:06:16.607Z,-1.11
2023-02-28T22:08:44.956Z,-1.12
2023-02-28T22:11:12.647Z,-1.21
2023-02-28T22:13:40.521Z,-1.27
2023-02-28T22:16:12.378Z,-1.00
2023-02-28T22:18:40.166Z,-1.10
2023-02-28T22:21:08.079Z,-1.03
2023-02-28T22:23:36.521Z,-1.08
2023-02-28T22:26:06.119Z,-1.15
2023-02-28T22:28:33.502Z,-1.31
2023-02-28T22:31:01.258Z,-1.32
2023-02-28T22:33:28.320Z,-1.09
2023-02-28T22:35:55.222Z,-1.12
2023-02-28T22:38:22.862Z,-1.11
2023-02-28T22:40:49.655Z,-1.15
2023-02-28T22:43:16.756Z,-1.29
2023-02-28T22:45:43.791Z,-1.28
2023-02-28T22:48:11.272Z,-1.28
2023-02-28T22:50:40.924Z,-1.21
2023-02-28T22:53:07.558Z,-1.28
2023-02-28T22:55:34.256Z,-1.41
2023-02-28T22:58:00.987Z,-1.27
2023-02-28T23:00:28.131Z,-1.21
2023-02-28T23:02:54.846Z,-1.33
2023-02-28T23:05:21.510Z,-1.46
2023-02-28T23:07:48.258Z,-1.26
2023-02-28T23:10:17.771Z,-1.54
2023-02-28T23:12:53.917Z,-1.73
2023-02-28T23:15:23.392Z,-1.51
2023-02-28T23:17:50.515Z,-1.62
2023-02-28T23:20:21.114Z,-1.60
2023-02-28T23:22:50.721Z,-1.62
2023-02-28T23:25:19.042Z,-1.69
2023-02-28T23:27:46.410Z,-1.56
2023-02-28T23:30:14.397Z,-1.55
2023-02-28T23:32:43.729Z,-1.61
2023-02-28T23:35:12.217Z,-1.68
2023-02-28T23:37:40.033Z,-1.59
2023-02-28T23:40:10.922Z,-1.67
2023-02-28T23:42:37.962Z,-1.79
2023-02-28T23:45:05.175Z,-1.74
2023-02-28T23:47:32.666Z,-1.76
2023-02-28T23:49:59.386Z,-1.70
2023-02-28T23:52:26.128Z,-1.84
2023-02-28T23:54:52.821Z,-1.74
2023-02-28T23:57:19.875Z,-1.63
2023-02-28T23:59:46.662Z,-1.71
